Time;durP1;ratioP1;P1;durP2;ratioP2;P2;SDS_P1;SDS_P2;PMS_P1;PMS_P2;Temp;Humidity;BMP_temperature;BMP_pressure;BME280_temperature;BME280_humidity;BME280_pressure;Samples;Min_cycle;Max_cycle;Signal;HPM_P1;HPM_P2
2021/03/10 00:00:08;;;;;;;24.45;12.98;;;5.30;66.00;;;;;;5033736;28;20041;-66
2021/03/10 00:02:33;;;;;;;23.35;11.98;;;5.30;66.20;;;;;;5033489;28;20063;-66
2021/03/10 00:04:59;;;;;;;19.75;12.40;;;5.30;66.10;;;;;;5033861;28;20559;-66
2021/03/10 00:07:25;;;;;;;19.85;12.30;;;5.30;66.10;;;;;;5033221;28;20068;-66
2021/03/10 00:09:52;;;;;;;22.80;13.25;;;5.30;66.30;;;;;;5034279;28;20445;-66
2021/03/10 00:12:18;;;;;;;22.65;12.02;;;5.30;66.40;;;;;;5034156;28;20033;-66
2021/03/10 00:14:44;;;;;;;23.98;12.40;;;5.30;66.30;;;;;;5030865;28;20055;-66
2021/03/10 00:17:09;;;;;;;20.92;12.00;;;5.30;66.40;;;;;;5034154;28;20056;-66
2021/03/10 00:19:35;;;;;;;20.33;11.90;;;5.30;66.50;;;;;;5029613;28;20044;-66
2021/03/10 00:22:01;;;;;;;23.90;11.80;;;5.30;66.50;;;;;;5027194;28;20033;-66
2021/03/10 00:24:26;;;;;;;21.88;12.10;;;5.30;66.60;;;;;;5033442;28;20119;-67
2021/03/10 00:26:52;;;;;;;22.95;12.07;;;5.30;66.60;;;;;;5032673;28;20071;-66
2021/03/10 00:29:18;;;;;;;22.00;12.77;;;5.30;66.60;;;;;;5034655;28;20040;-66
2021/03/10 00:31:43;;;;;;;23.30;12.90;;;5.30;66.70;;;;;;5033660;28;20040;-66
2021/03/10 00:34:09;;;;;;;22.02;11.75;;;5.30;66.70;;;;;;5015655;28;20435;-66
2021/03/10 00:36:35;;;;;;;22.17;11.73;;;5.30;66.80;;;;;;5032885;28;20025;-66
2021/03/10 00:39:01;;;;;;;20.45;12.00;;;5.30;66.90;;;;;;5028382;28;20060;-66
2021/03/10 00:41:26;;;;;;;20.00;11.77;;;5.30;66.80;;;;;;5033433;28;20033;-66
2021/03/10 00:43:52;;;;;;;23.08;13.43;;;5.30;66.80;;;;;;5031913;28;20120;-66
2021/03/10 00:46:17;;;;;;;21.10;12.63;;;5.40;66.90;;;;;;5033826;28;20029;-66
2021/03/10 00:48:43;;;;;;;25.30;13.88;;;5.40;66.70;;;;;;5033724;28;20035;-66
2021/03/10 00:51:08;;;;;;;23.05;13.38;;;5.40;66.80;;;;;;5031404;28;20025;-66
2021/03/10 00:53:34;;;;;;;24.15;13.57;;;5.40;66.80;;;;;;5024381;28;20043;-66
2021/03/10 00:56:00;;;;;;;21.58;12.50;;;5.40;66.90;;;;;;5029173;28;20396;-66
2021/03/10 00:58:25;;;;;;;26.00;13.80;;;5.40;66.90;;;;;;5029077;28;20039;-66
2021/03/10 01:00:51;;;;;;;27.23;14.35;;;5.40;67.00;;;;;;5031850;28;20056;-66
2021/03/10 01:03:17;;;;;;;25.58;13.68;;;5.40;66.90;;;;;;5022395;28;20040;-66
2021/03/10 01:05:43;;;;;;;25.95;14.55;;;5.40;66.90;;;;;;5030291;28;20120;-66
2021/03/10 01:08:10;;;;;;;23.00;13.82;;;5.30;67.10;;;;;;5028056;28;20029;-66
2021/03/10 01:10:35;;;;;;;25.98;14.05;;;5.30;67.10;;;;;;5033415;28;20068;-67
2021/03/10 01:13:01;;;;;;;24.73;14.48;;;5.30;67.40;;;;;;5027779;28;20049;-66
2021/03/10 01:15:27;;;;;;;28.38;15.38;;;5.20;67.50;;;;;;5025213;28;20021;-66
2021/03/10 01:17:52;;;;;;;25.92;15.05;;;5.20;67.60;;;;;;5032785;28;20024;-66
2021/03/10 01:20:23;;;;;;;30.45;16.15;;;5.20;67.80;;;;;;5028035;28;20112;-66
2021/03/10 01:22:49;;;;;;;31.50;16.40;;;5.20;67.90;;;;;;5025065;28;20106;-66
2021/03/10 01:25:15;;;;;;;29.83;15.68;;;5.20;68.00;;;;;;5023167;28;20025;-66
2021/03/10 01:27:41;;;;;;;27.95;15.13;;;5.20;68.60;;;;;;5028683;28;20033;-66
2021/03/10 01:30:10;;;;;;;30.85;15.55;;;5.20;68.00;;;;;;5029100;28;20096;-66
2021/03/10 01:32:36;;;;;;;32.85;17.05;;;5.30;68.20;;;;;;5032847;28;20032;-66
2021/03/10 01:35:04;;;;;;;37.60;18.05;;;5.30;68.10;;;;;;5030933;28;20078;-66
2021/03/10 01:37:30;;;;;;;35.15;17.60;;;5.30;68.20;;;;;;5030819;28;20017;-66
2021/03/10 01:39:55;;;;;;;33.80;17.95;;;5.20;68.30;;;;;;5032369;28;20059;-66
2021/03/10 01:42:22;;;;;;;38.80;20.02;;;5.30;68.40;;;;;;5032872;28;20326;-66
2021/03/10 01:44:48;;;;;;;32.35;17.52;;;5.30;69.00;;;;;;5029951;28;20139;-66
2021/03/10 01:47:14;;;;;;;33.22;17.58;;;5.20;68.40;;;;;;5032706;28;20115;-66
2021/03/10 01:49:41;;;;;;;35.33;17.63;;;5.20;68.70;;;;;;5027209;28;20029;-66
2021/03/10 01:52:07;;;;;;;35.10;18.63;;;5.20;68.80;;;;;;5026833;28;20021;-67
2021/03/10 01:54:33;;;;;;;34.05;17.77;;;5.20;68.90;;;;;;5031536;28;20111;-67
2021/03/10 01:57:00;;;;;;;35.17;17.40;;;5.20;69.00;;;;;;5032728;28;20511;-67
2021/03/10 01:59:26;;;;;;;31.80;17.58;;;5.30;69.10;;;;;;5032077;28;20033;-67
2021/03/10 02:01:51;;;;;;;32.72;16.85;;;5.30;69.10;;;;;;5048047;28;20125;-67
2021/03/10 02:04:17;;;;;;;33.53;17.45;;;5.30;69.00;;;;;;5031695;28;20567;-67
2021/03/10 02:07:01;;;;;;;33.55;18.42;;;5.30;69.00;;;;;;5031465;28;20029;-67
2021/03/10 02:09:54;;;;;;;33.30;18.25;;;5.30;69.20;;;;;;5029192;28;20044;-67
2021/03/10 02:12:25;;;;;;;35.13;18.20;;;5.20;69.20;;;;;;5023761;28;20075;-67
2021/03/10 02:14:59;;;;;;;39.28;18.95;;;5.20;69.20;;;;;;5024459;28;20025;-67
2021/03/10 02:17:29;;;;;;;43.33;20.20;;;5.20;69.40;;;;;;5017343;28;20017;-67
2021/03/10 02:20:01;;;;;;;37.17;18.58;;;5.20;69.50;;;;;;5030654;28;20079;-67
2021/03/10 02:23:05;;;;;;;34.40;16.90;;;5.10;69.50;;;;;;5028660;28;20128;-67
2021/03/10 02:25:46;;;;;;;38.78;18.70;;;5.10;69.50;;;;;;5023639;28;20033;-67
2021/03/10 02:28:12;;;;;;;34.40;17.75;;;5.10;69.60;;;;;;5031805;28;20075;-67
2021/03/10 02:30:43;;;;;;;36.83;18.88;;;5.10;69.60;;;;;;5031795;28;20029;-67
2021/03/10 02:33:12;;;;;;;37.17;17.73;;;5.10;69.90;;;;;;5035783;28;20025;-66
2021/03/10 02:35:42;;;;;;;38.78;19.10;;;5.10;69.90;;;;;;5035421;28;20018;-67
2021/03/10 02:38:12;;;;;;;36.20;18.95;;;5.10;70.00;;;;;;5038714;28;20029;-67
2021/03/10 02:40:39;;;;;;;40.70;20.85;;;5.10;70.00;;;;;;5027857;28;20028;-66
2021/03/10 02:43:08;;;;;;;35.97;19.25;;;5.10;69.90;;;;;;5032611;28;20127;-66
2021/03/10 02:45:34;;;;;;;44.20;20.80;;;5.10;69.90;;;;;;5035413;28;20024;-66
2021/03/10 02:48:02;;;;;;;43.03;21.58;;;5.10;70.10;;;;;;5036164;28;20037;-66
2021/03/10 02:50:29;;;;;;;44.63;23.00;;;5.10;70.20;;;;;;5033054;28;20025;-66
2021/03/10 02:52:56;;;;;;;44.45;22.05;;;5.00;70.30;;;;;;5034144;28;20029;-67
2021/03/10 02:55:22;;;;;;;46.33;21.45;;;5.00;70.50;;;;;;5035350;28;20021;-67
2021/03/10 02:57:48;;;;;;;46.10;22.92;;;5.00;70.70;;;;;;5035720;28;20017;-67
2021/03/10 03:00:24;;;;;;;40.45;20.58;;;4.90;70.80;;;;;;5053266;28;20059;-67
2021/03/10 03:02:50;;;;;;;44.78;22.23;;;4.90;71.00;;;;;;5026112;28;20040;-67
2021/03/10 03:05:16;;;;;;;39.30;20.90;;;4.90;71.10;;;;;;5033590;28;20115;-66
2021/03/10 03:07:44;;;;;;;41.22;20.83;;;4.90;71.00;;;;;;5025919;28;20503;-67
2021/03/10 03:10:13;;;;;;;42.90;21.77;;;4.90;71.20;;;;;;5035438;28;20029;-67
2021/03/10 03:12:41;;;;;;;42.50;20.85;;;4.90;71.10;;;;;;5030413;28;20462;-67
2021/03/10 03:15:09;;;;;;;48.40;21.90;;;4.90;71.00;;;;;;5031894;28;20110;-67
2021/03/10 03:17:35;;;;;;;45.00;21.00;;;5.00;71.10;;;;;;5027221;28;20446;-67
2021/03/10 03:20:04;;;;;;;47.38;22.65;;;5.00;71.10;;;;;;5031227;28;20480;-66
2021/03/10 03:22:30;;;;;;;47.55;22.73;;;5.00;71.30;;;;;;5033972;28;20137;-66
2021/03/10 03:24:57;;;;;;;42.72;22.02;;;5.00;71.20;;;;;;5026262;28;20450;-67
2021/03/10 03:27:26;;;;;;;52.30;23.92;;;5.00;71.30;;;;;;5035051;28;20434;-66
2021/03/10 03:29:56;;;;;;;50.13;23.17;;;5.00;71.40;;;;;;5033001;28;20485;-66
2021/03/10 03:32:33;;;;;;;52.97;24.52;;;5.00;71.50;;;;;;5035022;28;20025;-67
2021/03/10 03:35:00;;;;;;;52.30;25.00;;;5.00;71.50;;;;;;5031931;28;20024;-67
2021/03/10 03:37:26;;;;;;;51.45;24.90;;;4.90;71.70;;;;;;5028450;28;20021;-66
2021/03/10 03:39:52;;;;;;;51.30;25.08;;;4.90;71.90;;;;;;5034886;28;20033;-66
2021/03/10 03:42:21;;;;;;;54.95;25.20;;;4.80;72.00;;;;;;5035076;28;20058;-67
2021/03/10 03:44:48;;;;;;;56.03;26.02;;;4.80;72.20;;;;;;5032528;28;20029;-67
2021/03/10 03:47:14;;;;;;;51.28;23.13;;;4.80;72.20;;;;;;5034815;28;20525;-67
2021/03/10 03:49:46;;;;;;;49.83;25.02;;;4.80;72.10;;;;;;5033987;28;20090;-66
2021/03/10 03:52:12;;;;;;;47.17;22.38;;;4.80;72.30;;;;;;5033429;28;20043;-67
2021/03/10 03:54:37;;;;;;;49.40;24.40;;;4.80;72.10;;;;;;5026274;28;20018;-67
2021/03/10 03:57:03;;;;;;;47.97;22.85;;;4.80;72.30;;;;;;5017873;28;20021;-67
2021/03/10 03:59:29;;;;;;;52.25;23.23;;;4.80;72.50;;;;;;5034198;28;20029;-67
2021/03/10 04:01:54;;;;;;;51.40;22.20;;;4.90;72.40;;;;;;5034294;28;20095;-66
2021/03/10 04:04:20;;;;;;;53.95;24.50;;;4.90;72.20;;;;;;5032882;28;20542;-67
2021/03/10 04:06:47;;;;;;;51.15;23.27;;;4.90;72.10;;;;;;5034318;28;20036;-67
2021/03/10 04:09:13;;;;;;;47.45;22.58;;;4.90;72.10;;;;;;5028581;28;20037;-66
2021/03/10 04:11:38;;;;;;;48.25;22.92;;;5.00;72.20;;;;;;5027374;28;20036;-67
2021/03/10 04:14:05;;;;;;;51.03;22.48;;;5.00;72.20;;;;;;5033971;28;20362;-66
2021/03/10 04:16:30;;;;;;;48.08;22.08;;;5.00;72.10;;;;;;5036366;28;20397;-67
2021/03/10 04:18:56;;;;;;;51.38;24.08;;;5.00;72.20;;;;;;5028754;28;20021;-67
2021/03/10 04:21:22;;;;;;;53.17;24.00;;;5.00;72.30;;;;;;5033963;28;20037;-67
2021/03/10 04:23:47;;;;;;;53.47;25.30;;;5.00;72.20;;;;;;5032979;28;20021;-67
2021/03/10 04:26:13;;;;;;;52.42;25.23;;;5.00;72.20;;;;;;5034073;28;20025;-67
2021/03/10 04:28:38;;;;;;;60.92;25.23;;;5.10;72.30;;;;;;5024916;28;20025;-67
2021/03/10 04:31:04;;;;;;;54.22;24.45;;;5.10;72.20;;;;;;5033507;28;20039;-67
2021/03/10 04:33:30;;;;;;;55.10;24.90;;;5.10;72.20;;;;;;5033704;28;20028;-67
2021/03/10 04:35:55;;;;;;;55.10;24.65;;;5.20;72.20;;;;;;5025562;28;20040;-67
2021/03/10 04:38:21;;;;;;;54.00;25.35;;;5.20;72.20;;;;;;5048814;28;20021;-67
2021/03/10 04:40:46;;;;;;;52.35;24.23;;;5.20;72.20;;;;;;5027158;28;20029;-67
2021/03/10 04:43:12;;;;;;;51.20;24.85;;;5.20;72.20;;;;;;5050289;28;20036;-67
2021/03/10 04:45:38;;;;;;;51.63;24.98;;;5.20;72.30;;;;;;5031931;28;20062;-67
2021/03/10 04:48:04;;;;;;;55.85;25.52;;;5.20;72.80;;;;;;5027776;28;20122;-67
2021/03/10 04:50:30;;;;;;;52.60;24.38;;;5.20;72.30;;;;;;5030735;28;20060;-67
2021/03/10 04:52:55;;;;;;;50.13;22.75;;;5.10;72.20;;;;;;5028447;28;20033;-67
2021/03/10 04:55:21;;;;;;;52.40;24.35;;;5.10;72.50;;;;;;5029245;28;20532;-66
2021/03/10 04:57:46;;;;;;;52.15;23.13;;;5.10;72.60;;;;;;5029562;28;20112;-67
2021/03/10 05:00:13;;;;;;;52.88;23.85;;;5.10;72.70;;;;;;5033296;28;20079;-67
2021/03/10 05:13:00;;;;;;;57.50;25.20;;;5.20;72.40;;;;;;2186491;23;20103;-66
2021/03/10 05:15:25;;;;;;;54.00;24.85;;;5.20;72.40;;;;;;5025415;28;20017;-65
2021/03/10 05:17:51;;;;;;;62.15;26.52;;;5.20;72.30;;;;;;5032224;28;20036;-66
2021/03/10 05:20:16;;;;;;;58.00;25.02;;;5.20;72.50;;;;;;5033464;28;20111;-66
2021/03/10 05:22:42;;;;;;;56.22;25.08;;;5.20;72.50;;;;;;5031781;28;20060;-66
2021/03/10 05:25:09;;;;;;;52.90;24.52;;;5.20;72.50;;;;;;5031292;28;20037;-65
2021/03/10 05:27:35;;;;;;;55.83;24.50;;;5.10;72.50;;;;;;5033178;28;20082;-66
2021/03/10 05:30:04;;;;;;;51.75;23.50;;;5.10;72.80;;;;;;5032183;28;20033;-67
2021/03/10 05:32:30;;;;;;;57.65;25.63;;;5.10;73.00;;;;;;5030051;28;20129;-66
2021/03/10 05:34:55;;;;;;;54.35;25.92;;;5.20;73.00;;;;;;5030879;28;20116;-67
2021/03/10 05:37:21;;;;;;;59.20;26.42;;;5.20;72.90;;;;;;5032933;28;20029;-67
2021/03/10 05:39:47;;;;;;;56.85;25.80;;;5.20;72.90;;;;;;5033304;28;20029;-67
2021/03/10 05:42:12;;;;;;;53.00;24.98;;;5.30;72.90;;;;;;5033034;28;20056;-66
2021/03/10 05:44:39;;;;;;;56.45;25.75;;;5.20;72.80;;;;;;5032308;28;20039;-67
2021/03/10 05:47:08;;;;;;;57.13;26.17;;;5.30;73.00;;;;;;5032502;28;20025;-66
2021/03/10 05:49:33;;;;;;;54.75;25.67;;;5.30;73.00;;;;;;5033005;28;20120;-67
2021/03/10 05:52:03;;;;;;;57.55;25.77;;;5.30;72.90;;;;;;5033063;28;20568;-67
2021/03/10 05:54:31;;;;;;;53.30;24.45;;;5.30;73.10;;;;;;5032492;28;20021;-67
2021/03/10 05:57:00;;;;;;;55.38;25.95;;;5.30;73.10;;;;;;5032511;28;20032;-67
2021/03/10 05:59:28;;;;;;;53.97;24.38;;;5.30;73.20;;;;;;5032747;28;20029;-67
2021/03/10 06:01:54;;;;;;;58.60;26.35;;;5.30;73.00;;;;;;5032650;28;20033;-67
2021/03/10 06:04:20;;;;;;;58.15;26.30;;;5.40;72.90;;;;;;5030253;28;20040;-66
2021/03/10 06:06:46;;;;;;;67.10;28.17;;;5.30;72.80;;;;;;5032243;28;20025;-67
2021/03/10 06:09:19;;;;;;;65.65;28.08;;;5.40;72.90;;;;;;5032315;28;20037;-66
2021/03/10 06:12:05;;;;;;;66.20;28.17;;;5.30;72.90;;;;;;5032339;28;20334;-67
2021/03/10 06:14:32;;;;;;;59.33;27.73;;;5.30;72.90;;;;;;5031893;28;20091;-66
2021/03/10 06:17:03;;;;;;;56.75;27.80;;;5.30;73.00;;;;;;5033003;28;20465;-65
2021/03/10 06:19:28;;;;;;;59.50;26.30;;;5.30;73.00;;;;;;5036713;28;20400;-66
2021/03/10 06:21:54;;;;;;;66.60;28.45;;;5.20;72.90;;;;;;5036504;28;20021;-66
2021/03/10 06:24:31;;;;;;;64.60;28.65;;;5.20;73.10;;;;;;5036549;28;20036;-66
2021/03/10 06:26:56;;;;;;;65.20;28.05;;;5.20;73.40;;;;;;5030784;28;20444;-66
2021/03/10 06:29:22;;;;;;;62.72;29.02;;;5.20;73.30;;;;;;5019289;28;20025;-65
2021/03/10 06:31:48;;;;;;;59.67;27.30;;;5.10;73.40;;;;;;5034351;28;20032;-67
2021/03/10 06:34:16;;;;;;;61.50;27.23;;;5.10;73.40;;;;;;5036550;28;20074;-65
2021/03/10 06:36:50;;;;;;;68.60;30.40;;;5.10;73.60;;;;;;5037279;28;20048;-66
2021/03/10 06:39:29;;;;;;;61.80;27.63;;;5.20;73.70;;;;;;5036867;28;20032;-67
2021/03/10 06:41:56;;;;;;;64.35;28.30;;;5.20;73.70;;;;;;5036504;28;20039;-67
2021/03/10 06:44:22;;;;;;;65.57;29.05;;;5.20;73.60;;;;;;5033488;28;20458;-66
2021/03/10 06:47:02;;;;;;;65.75;27.63;;;5.30;73.70;;;;;;5023658;28;20117;-66
2021/03/10 06:49:30;;;;;;;58.33;27.33;;;5.30;73.70;;;;;;5033714;28;20448;-64
2021/03/10 06:52:00;;;;;;;61.03;27.27;;;5.30;73.60;;;;;;5025776;28;20021;-64
2021/03/10 06:54:29;;;;;;;65.88;28.05;;;5.30;73.60;;;;;;5030914;28;20542;-67
2021/03/10 06:57:10;;;;;;;64.38;26.55;;;5.30;73.60;;;;;;5035157;28;20035;-66
2021/03/10 06:59:45;;;;;;;60.75;26.80;;;5.40;73.80;;;;;;5026230;28;20018;-66
2021/03/10 07:02:28;;;;;;;62.08;28.50;;;5.50;73.70;;;;;;5049830;28;20439;-66
2021/03/10 07:04:56;;;;;;;61.35;27.23;;;5.50;73.70;;;;;;5016449;28;20029;-66
2021/03/10 07:07:23;;;;;;;59.85;26.23;;;5.60;73.50;;;;;;5032669;28;20025;-65
2021/03/10 07:09:48;;;;;;;59.28;27.67;;;5.60;73.40;;;;;;5036244;28;20116;-66
2021/03/10 07:12:16;;;;;;;63.13;27.45;;;5.70;73.40;;;;;;5032172;28;20021;-68
2021/03/10 07:14:43;;;;;;;59.65;27.73;;;5.60;73.40;;;;;;5023634;28;20087;-65
2021/03/10 07:17:11;;;;;;;59.80;27.55;;;5.60;73.40;;;;;;5034575;28;20037;-66
2021/03/10 07:19:37;;;;;;;66.47;29.85;;;5.70;73.40;;;;;;5036104;28;20119;-67
2021/03/10 07:22:14;;;;;;;64.70;30.13;;;5.70;73.60;;;;;;5036078;28;20108;-67
2021/03/10 07:24:41;;;;;;;65.47;30.20;;;5.60;73.70;;;;;;5016012;28;20515;-67
2021/03/10 07:27:09;;;;;;;63.85;28.05;;;5.70;73.80;;;;;;5034166;28;20041;-67
2021/03/10 07:29:40;;;;;;;61.70;28.10;;;5.70;73.60;;;;;;5035027;28;20029;-67
2021/03/10 07:32:07;;;;;;;69.28;28.00;;;5.70;73.80;;;;;;5036154;28;20029;-67
2021/03/10 07:34:34;;;;;;;60.35;27.85;;;5.80;73.80;;;;;;5034756;28;20071;-67
2021/03/10 07:37:14;;;;;;;66.57;30.90;;;5.90;74.30;;;;;;5035622;28;20125;-66
2021/03/10 07:39:41;;;;;;;67.53;30.60;;;6.00;73.90;;;;;;5035247;28;20033;-66
2021/03/10 07:42:13;;;;;;;59.83;29.30;;;6.00;73.60;;;;;;5044221;28;20033;-67
2021/03/10 07:44:40;;;;;;;60.80;28.50;;;6.00;73.70;;;;;;5024916;28;20029;-67
2021/03/10 07:47:14;;;;;;;61.13;27.73;;;6.00;73.60;;;;;;5020238;28;20059;-67
2021/03/10 07:49:41;;;;;;;66.68;30.63;;;6.10;74.00;;;;;;5034611;28;20028;-67
2021/03/10 07:52:07;;;;;;;61.97;30.38;;;6.10;74.00;;;;;;5024241;28;20107;-67
2021/03/10 07:54:33;;;;;;;61.42;29.35;;;6.10;74.00;;;;;;5035139;28;20604;-66
2021/03/10 07:57:18;;;;;;;64.35;29.65;;;6.10;74.00;;;;;;5034810;28;20021;-66
2021/03/10 07:59:55;;;;;;;58.35;28.13;;;6.20;74.10;;;;;;5026028;28;20040;-66
2021/03/10 08:02:22;;;;;;;59.38;29.90;;;6.30;74.00;;;;;;5034949;28;20096;-66
2021/03/10 08:05:02;;;;;;;56.92;26.95;;;6.20;73.90;;;;;;5034817;28;20043;-66
2021/03/10 08:07:30;;;;;;;60.65;28.70;;;6.30;74.00;;;;;;5035415;28;20036;-66
2021/03/10 08:09:57;;;;;;;59.67;29.20;;;6.40;73.90;;;;;;5035271;28;20025;-67
2021/03/10 08:12:36;;;;;;;57.55;29.00;;;6.50;74.10;;;;;;5035039;28;20028;-66
2021/03/10 08:15:06;;;;;;;51.63;25.77;;;6.60;73.90;;;;;;5033007;28;20137;-67
2021/03/10 08:17:32;;;;;;;56.67;26.35;;;6.60;73.60;;;;;;5031589;28;20028;-67
2021/03/10 08:20:04;;;;;;;54.72;26.42;;;6.70;73.90;;;;;;5028417;28;20112;-67
2021/03/10 08:22:32;;;;;;;51.93;25.63;;;6.80;73.80;;;;;;5035360;28;20366;-66
2021/03/10 08:25:00;;;;;;;51.50;25.42;;;6.90;73.50;;;;;;5034670;28;20025;-66
2021/03/10 08:27:43;;;;;;;50.25;25.08;;;7.00;73.40;;;;;;5035000;28;20029;-65
2021/03/10 08:30:11;;;;;;;54.65;26.73;;;7.10;73.30;;;;;;5031826;28;20128;-65
2021/03/10 08:32:37;;;;;;;50.38;26.02;;;7.10;73.10;;;;;;5034401;28;20031;-66
2021/03/10 08:35:10;;;;;;;47.03;24.70;;;7.20;72.90;;;;;;5028221;28;20029;-67
2021/03/10 08:37:36;;;;;;;;;;;7.20;72.60;;;;;;5031024;28;20023;-65
2021/03/10 08:40:03;;;;;;;48.53;25.00;;;7.30;72.40;;;;;;5033862;28;19908;-66
2021/03/10 08:42:29;;;;;;;49.25;25.17;;;7.40;72.30;;;;;;5029589;28;20039;-66
2021/03/10 08:44:54;;;;;;;49.47;25.15;;;7.40;72.20;;;;;;5033099;28;20025;-66
2021/03/10 08:47:26;;;;;;;46.45;24.15;;;7.40;72.20;;;;;;5034658;28;20031;-66
2021/03/10 08:49:59;;;;;;;41.78;22.90;;;7.50;72.10;;;;;;5034585;28;20705;-66
2021/03/10 08:52:26;;;;;;;44.65;23.75;;;7.70;71.70;;;;;;5028304;28;20549;-66
2021/03/10 08:54:54;;;;;;;46.15;23.25;;;7.90;71.20;;;;;;5032377;28;20029;-66
2021/03/10 08:57:25;;;;;;;40.88;21.73;;;8.00;70.80;;;;;;5025591;28;20449;-66
2021/03/10 08:59:51;;;;;;;41.10;22.13;;;8.10;70.60;;;;;;5025884;28;20396;-65
2021/03/10 09:02:28;;;;;;;41.80;23.17;;;8.10;70.50;;;;;;5033848;28;20036;-66
2021/03/10 09:04:54;;;;;;;39.45;22.23;;;8.10;70.00;;;;;;5033929;28;20434;-66
2021/03/10 09:07:21;;;;;;;44.50;22.35;;;8.00;70.00;;;;;;5034116;28;20083;-66
2021/03/10 09:09:52;;;;;;;40.45;21.52;;;7.80;70.30;;;;;;5033620;28;20055;-66
2021/03/10 09:12:17;;;;;;;44.03;21.55;;;7.80;70.60;;;;;;5033833;28;20032;-66
2021/03/10 09:14:43;;;;;;;35.47;19.98;;;7.90;70.80;;;;;;5033816;28;20028;-66
2021/03/10 09:17:09;;;;;;;38.38;21.30;;;7.90;70.60;;;;;;5033992;28;20021;-66
2021/03/10 09:19:45;;;;;;;34.60;19.48;;;7.80;70.50;;;;;;5034501;28;20083;-66
2021/03/10 09:22:14;;;;;;;38.85;19.70;;;7.80;70.50;;;;;;5051589;28;20060;-66
2021/03/10 09:24:54;;;;;;;36.20;19.55;;;7.80;70.70;;;;;;5033381;28;20033;-66
2021/03/10 09:27:31;;;;;;;35.72;19.67;;;7.80;70.30;;;;;;5033625;28;20025;-65
2021/03/10 09:29:59;;;;;;;34.97;19.13;;;7.90;70.40;;;;;;5033701;28;20055;-66
2021/03/10 09:32:25;;;;;;;35.03;19.00;;;7.90;70.20;;;;;;5033130;28;20067;-66
2021/03/10 09:34:53;;;;;;;33.67;18.90;;;8.00;69.90;;;;;;5033567;28;20634;-66
2021/03/10 09:37:27;;;;;;;33.55;18.23;;;8.10;69.70;;;;;;5033564;28;20108;-66
2021/03/10 09:39:54;;;;;;;34.25;18.85;;;8.20;69.60;;;;;;5033788;28;20055;-66
2021/03/10 09:42:26;;;;;;;32.30;17.67;;;8.30;69.50;;;;;;5032090;28;20025;-66
2021/03/10 09:44:52;;;;;;;34.40;19.13;;;8.30;68.80;;;;;;5027208;28;20044;-65
2021/03/10 09:47:26;;;;;;;34.00;17.98;;;8.40;69.00;;;;;;5033020;28;20122;-66
2021/03/10 09:49:59;;;;;;;30.88;17.90;;;8.60;69.20;;;;;;5033170;28;20032;-66
2021/03/10 09:52:34;;;;;;;33.42;18.40;;;8.70;69.00;;;;;;5033679;28;20039;-65
2021/03/10 09:55:00;;;;;;;34.92;17.75;;;8.80;68.80;;;;;;5033531;28;20021;-66
2021/03/10 09:57:27;;;;;;;35.03;17.83;;;8.80;68.60;;;;;;5033447;28;20036;-66
2021/03/10 09:59:54;;;;;;;37.60;20.00;;;8.90;68.60;;;;;;5025346;28;20037;-66
2021/03/10 10:02:20;;;;;;;30.65;17.05;;;9.00;68.60;;;;;;5033142;28;20036;-65
2021/03/10 10:04:59;;;;;;;33.05;18.08;;;9.10;68.60;;;;;;5033269;28;20032;-66
2021/03/10 10:07:26;;;;;;;28.95;17.30;;;9.20;68.00;;;;;;5033089;28;20086;-66
2021/03/10 10:09:52;;;;;;;27.65;15.98;;;9.10;67.60;;;;;;5030817;28;20033;-66
2021/03/10 10:12:18;;;;;;;30.45;16.00;;;9.00;66.30;;;;;;5016100;28;20025;-66
2021/03/10 10:14:44;;;;;;;26.02;14.93;;;8.90;66.50;;;;;;5013498;28;20083;-65
2021/03/10 10:17:11;;;;;;;28.02;17.27;;;8.80;66.40;;;;;;5013668;28;20022;-65
2021/03/10 10:19:36;;;;;;;28.40;16.10;;;8.70;66.00;;;;;;5026894;28;20029;-65
2021/03/10 10:22:02;;;;;;;28.45;16.55;;;8.60;66.20;;;;;;5033238;28;20029;-65
2021/03/10 10:24:28;;;;;;;30.80;16.42;;;8.50;65.50;;;;;;5032905;28;20033;-65
2021/03/10 10:26:54;;;;;;;26.88;15.15;;;8.40;65.70;;;;;;5031811;28;20032;-66
2021/03/10 10:29:20;;;;;;;29.25;15.77;;;8.20;65.90;;;;;;5023331;28;20393;-65
2021/03/10 10:31:46;;;;;;;29.10;16.70;;;8.20;66.50;;;;;;5026668;28;20029;-66
2021/03/10 10:34:12;;;;;;;31.40;16.05;;;8.20;66.80;;;;;;5013069;28;20572;-65
2021/03/10 10:36:38;;;;;;;27.75;16.13;;;8.20;67.40;;;;;;5016445;28;20105;-65
2021/03/10 10:39:04;;;;;;;28.15;16.70;;;8.40;67.50;;;;;;5033830;28;20024;-66
2021/03/10 10:41:30;;;;;;;37.22;15.98;;;8.50;67.30;;;;;;5032981;28;20084;-65
2021/03/10 10:43:56;;;;;;;33.38;16.05;;;8.70;66.90;;;;;;5032524;28;20027;-66
2021/03/10 10:46:22;;;;;;;31.73;15.82;;;9.00;66.90;;;;;;5033144;28;20017;-64
2021/03/10 10:48:48;;;;;;;67.32;38.35;;;9.20;66.60;;;;;;5032596;28;20439;-65
2021/03/10 10:51:13;;;;;;;28.42;15.77;;;9.40;66.30;;;;;;5032588;28;20028;-66
2021/03/10 10:53:39;;;;;;;25.40;13.48;;;9.50;65.90;;;;;;5031225;28;20025;-66
2021/03/10 10:56:05;;;;;;;23.58;13.48;;;9.60;65.50;;;;;;5032601;28;20061;-65
2021/03/10 10:58:30;;;;;;;26.98;15.05;;;9.60;65.20;;;;;;5031713;28;20033;-66
2021/03/10 11:00:56;;;;;;;23.20;13.32;;;9.60;64.20;;;;;;5032871;28;20025;-65
2021/03/10 11:03:23;;;;;;;28.17;14.82;;;9.60;64.10;;;;;;5032209;28;20040;-65
2021/03/10 11:05:49;;;;;;;24.73;14.52;;;9.60;63.20;;;;;;5035655;28;20080;-65
2021/03/10 11:08:15;;;;;;;26.40;14.50;;;9.60;62.50;;;;;;5035281;28;20025;-65
2021/03/10 11:10:40;;;;;;;25.10;14.27;;;9.50;61.50;;;;;;5036125;28;20032;-65
2021/03/10 11:13:06;;;;;;;26.00;15.07;;;9.50;62.20;;;;;;5054129;28;20036;-66
2021/03/10 11:15:32;;;;;;;21.63;11.63;;;9.50;61.30;;;;;;5035936;28;20025;-66
2021/03/10 11:17:57;;;;;;;21.30;11.77;;;9.50;61.60;;;;;;5035931;28;20067;-66
2021/03/10 11:20:23;;;;;;;25.02;13.10;;;9.50;61.50;;;;;;5027628;28;20025;-65
2021/03/10 11:22:49;;;;;;;20.52;11.68;;;9.60;61.20;;;;;;5035056;28;20033;-65
2021/03/10 11:25:15;;;;;;;18.58;11.10;;;9.60;61.30;;;;;;5032171;28;20033;-65
2021/03/10 11:27:41;;;;;;;18.13;10.52;;;9.60;60.30;;;;;;5031751;28;20033;-64
2021/03/10 11:30:08;;;;;;;22.15;12.43;;;9.70;59.90;;;;;;5029263;28;20076;-65
2021/03/10 11:32:34;;;;;;;16.85;11.32;;;9.70;60.10;;;;;;5031752;28;20056;-66
2021/03/10 11:35:00;;;;;;;15.88;10.35;;;9.90;58.40;;;;;;5034530;28;20147;-65
2021/03/10 11:37:26;;;;;;;15.77;10.60;;;9.90;58.00;;;;;;5035071;28;20500;-65
2021/03/10 11:39:51;;;;;;;16.65;9.25;;;9.90;57.50;;;;;;5035181;28;20029;-65
2021/03/10 11:42:17;;;;;;;17.67;11.20;;;10.00;58.50;;;;;;5029406;28;20036;-65
2021/03/10 11:44:43;;;;;;;18.83;10.45;;;10.00;57.90;;;;;;5035067;28;20031;-66
2021/03/10 11:47:09;;;;;;;17.02;10.65;;;10.00;58.10;;;;;;5034948;28;20392;-65
2021/03/10 11:49:34;;;;;;;18.00;10.80;;;10.10;58.20;;;;;;5035900;28;20025;-65
2021/03/10 11:52:00;;;;;;;20.40;10.80;;;10.20;58.50;;;;;;5035405;28;20385;-65
2021/03/10 11:54:26;;;;;;;19.17;10.48;;;10.30;58.40;;;;;;5032380;28;20470;-65
2021/03/10 11:56:51;;;;;;;15.20;9.15;;;10.50;58.10;;;;;;5034914;28;20465;-66
2021/03/10 11:59:17;;;;;;;19.23;10.95;;;10.60;57.00;;;;;;5035566;28;20025;-66
2021/03/10 12:01:43;;;;;;;16.83;9.48;;;10.60;56.60;;;;;;5031942;28;20406;-65
2021/03/10 12:04:09;;;;;;;18.35;10.65;;;10.60;56.20;;;;;;5034698;28;20033;-65
2021/03/10 12:06:35;;;;;;;18.73;10.20;;;10.60;56.20;;;;;;5049654;23;20057;-86
2021/03/10 12:09:00;;;;;;;16.08;8.73;;;10.70;56.60;;;;;;5000444;28;20019;-86
2021/03/10 12:11:26;;;;;;;15.77;8.70;;;10.80;56.70;;;;;;4999425;28;20026;-86
2021/03/10 12:13:52;;;;;;;15.02;8.57;;;10.90;56.20;;;;;;4999311;28;20025;-85
2021/03/10 12:16:17;;;;;;;13.27;8.35;;;11.00;55.40;;;;;;4998970;28;20338;-85
2021/03/10 12:18:43;;;;;;;16.40;8.93;;;11.00;55.70;;;;;;4998651;28;20419;-86
2021/03/10 12:21:08;;;;;;;15.68;9.65;;;11.10;55.30;;;;;;4992037;28;20023;-87
2021/03/10 12:23:35;;;;;;;17.45;10.35;;;11.10;55.60;;;;;;5033084;28;20034;-87
2021/03/10 12:26:00;;;;;;;18.73;10.48;;;11.00;55.40;;;;;;5002570;28;20053;-86
2021/03/10 12:28:26;;;;;;;17.05;10.60;;;10.80;56.10;;;;;;5006484;28;20030;-87
2021/03/10 12:30:51;;;;;;;16.60;8.60;;;10.70;55.30;;;;;;4997698;28;20495;-87
2021/03/10 12:33:17;;;;;;;14.52;8.52;;;10.60;55.10;;;;;;4998234;28;20028;-85
2021/03/10 12:35:43;;;;;;;15.82;8.68;;;10.40;55.70;;;;;;4998447;28;20440;-85
2021/03/10 12:38:08;;;;;;;16.48;8.50;;;10.40;56.20;;;;;;4999640;28;20415;-83
2021/03/10 12:40:34;;;;;;;16.80;9.70;;;10.40;56.50;;;;;;4999577;28;20030;-84
2021/03/10 12:42:59;;;;;;;15.63;9.05;;;10.40;56.50;;;;;;4999643;28;20113;-84
2021/03/10 12:45:25;;;;;;;17.27;9.43;;;10.50;56.70;;;;;;4995486;28;20081;-86
2021/03/10 12:47:51;;;;;;;13.13;8.20;;;10.60;56.70;;;;;;4993923;28;20117;-85